Time;durP1;ratioP1;P1;durP2;ratioP2;P2;SDS_P1;SDS_P2;PMS_P1;PMS_P2;Temp;Humidity;BMP_temperature;BMP_pressure;BME280_temperature;BME280_humidity;BME280_pressure;Samples;Min_cycle;Max_cycle;Signal;HPM_P1;HPM_P2
2022/06/24 08:04:12;;;;;;;2.13;0.70;;;23.30;68.70;;;;;;6122807;22;1874026;-90
2022/06/24 08:06:40;;;;;;;2.15;0.88;;;23.30;68.80;;;;;;6033933;23;20014;-91
2022/06/24 08:09:07;;;;;;;2.38;0.88;;;23.40;68.30;;;;;;6012039;23;20061;-91
2022/06/24 08:11:33;;;;;;;3.55;0.80;;;23.40;68.10;;;;;;6056025;23;20010;-92
2022/06/24 08:13:59;;;;;;;1.08;0.70;;;23.30;67.80;;;;;;6056035;23;20450;-89
2022/06/24 08:16:25;;;;;;;1.45;0.73;;;23.40;67.80;;;;;;6055882;23;20017;-91
2022/06/24 08:18:51;;;;;;;1.38;0.95;;;23.30;67.50;;;;;;6053900;23;20015;-91
2022/06/24 08:21:17;;;;;;;3.28;0.75;;;23.40;67.30;;;;;;6054108;23;20002;-88
2022/06/24 08:23:43;;;;;;;1.88;0.65;;;23.40;67.00;;;;;;6057732;23;20073;-91
2022/06/24 08:26:09;;;;;;;2.15;0.80;;;23.40;66.90;;;;;;6056963;23;20470;-91
2022/06/24 08:28:35;;;;;;;6.28;0.85;;;23.40;66.80;;;;;;6061451;23;20070;-91
2022/06/24 08:31:01;;;;;;;1.15;0.70;;;23.40;66.60;;;;;;6056831;23;20397;-90
2022/06/24 08:33:27;;;;;;;2.13;0.70;;;23.40;66.50;;;;;;6030489;23;20034;-91
2022/06/24 08:35:53;;;;;;;1.00;0.65;;;23.40;66.30;;;;;;6056319;23;20007;-92
2022/06/24 08:38:19;;;;;;;1.52;0.70;;;23.40;66.10;;;;;;6080240;23;20113;-90
2022/06/24 08:40:48;;;;;;;1.08;0.57;;;23.40;65.60;;;;;;6080710;23;20007;-91
2022/06/24 08:43:14;;;;;;;2.03;0.80;;;23.40;65.20;;;;;;6055818;23;20038;-91
2022/06/24 08:45:40;;;;;;;1.75;0.80;;;23.50;65.30;;;;;;6080182;23;20013;-91
2022/06/24 08:48:10;;;;;;;1.33;0.63;;;23.40;65.20;;;;;;6078401;23;20019;-91
2022/06/24 08:50:36;;;;;;;1.95;0.68;;;23.40;65.00;;;;;;6057323;23;20015;-91
2022/06/24 08:53:10;;;;;;;1.15;0.63;;;23.50;65.20;;;;;;6030720;23;20054;-91
2022/06/24 08:55:40;;;;;;;1.10;0.60;;;23.50;64.80;;;;;;6034723;23;20007;-92
2022/06/24 08:58:08;;;;;;;2.03;1.05;;;23.50;64.80;;;;;;6037261;23;20153;-91
2022/06/24 09:00:34;;;;;;;1.38;0.70;;;23.50;64.80;;;;;;6036267;23;20014;-92
2022/06/24 09:03:01;;;;;;;3.08;1.00;;;23.50;64.80;;;;;;6057859;23;20329;-91
2022/06/24 09:05:27;;;;;;;1.92;0.98;;;23.60;64.70;;;;;;6036496;23;20350;-92
2022/06/24 09:08:17;;;;;;;1.13;0.57;;;23.60;64.60;;;;;;6081076;23;20015;-91
2022/06/24 09:11:06;;;;;;;2.08;1.00;;;23.60;64.50;;;;;;6037364;23;20351;-91
2022/06/24 09:14:00;;;;;;;2.40;0.85;;;23.60;64.50;;;;;;6056892;23;20023;-91
2022/06/24 09:16:26;;;;;;;3.05;0.68;;;23.60;64.60;;;;;;6035370;23;20017;-91
2022/06/24 09:19:00;;;;;;;1.67;0.63;;;23.60;65.20;;;;;;6056897;23;20039;-91
2022/06/24 09:21:28;;;;;;;;;;;23.60;64.40;;;;;;6054772;23;20003;-91
2022/06/24 09:24:05;;;;;;;1.30;0.80;;;23.60;64.40;;;;;;6055322;23;19916;-91
2022/06/24 09:26:42;;;;;;;1.95;0.80;;;23.60;64.30;;;;;;6033681;23;20350;-92
2022/06/24 09:29:14;;;;;;;11.27;5.60;;;23.60;64.40;;;;;;6031425;23;20458;-91
2022/06/24 09:31:40;;;;;;;3.20;1.02;;;23.60;65.00;;;;;;6034233;23;20003;-91
2022/06/24 09:34:17;;;;;;;1.48;0.60;;;23.60;64.40;;;;;;6055456;23;20030;-92
2022/06/24 09:36:48;;;;;;;0.88;0.68;;;23.60;64.20;;;;;;6015961;23;20007;-91
2022/06/24 09:39:16;;;;;;;1.13;0.73;;;23.70;64.10;;;;;;6041299;23;20011;-91
2022/06/24 09:42:00;;;;;;;2.35;0.57;;;23.70;64.10;;;;;;6039678;23;20017;-89
2022/06/24 09:44:26;;;;;;;;;;;23.70;64.10;;;;;;6036520;23;20470;-92
2022/06/24 09:47:04;;;;;;;1.77;0.75;;;23.70;64.20;;;;;;6033688;23;19917;-92
2022/06/24 09:49:30;;;;;;;2.80;0.77;;;23.70;64.00;;;;;;6057306;23;20022;-91
2022/06/24 09:51:56;;;;;;;1.75;0.60;;;23.70;64.00;;;;;;6057345;23;20007;-88
2022/06/24 09:54:22;;;;;;;1.88;0.90;;;23.70;64.10;;;;;;6081385;23;20026;-90
2022/06/24 09:56:48;;;;;;;1.00;0.60;;;23.70;64.20;;;;;;6056306;23;20011;-91
2022/06/24 10:02:00;;;;;;;1.75;0.55;;;23.70;64.20;;;;;;6058252;23;20025;-90
2022/06/24 10:04:27;;;;;;;1.38;0.70;;;23.80;64.20;;;;;;6033374;23;20138;-90
2022/06/24 10:06:56;;;;;;;1.95;0.60;;;23.80;63.90;;;;;;6031662;23;20460;-91
2022/06/24 10:09:31;;;;;;;1.83;0.60;;;23.90;63.70;;;;;;6055615;23;20025;-91
2022/06/24 10:11:58;;;;;;;0.52;0.32;;;23.90;63.30;;;;;;6057878;23;20007;-91
2022/06/24 10:14:28;;;;;;;1.50;0.60;;;24.00;63.40;;;;;;6054872;23;20054;-90
2022/06/24 10:16:54;;;;;;;0.47;0.40;;;24.00;63.10;;;;;;6055988;23;20513;-91
2022/06/24 10:19:24;;;;;;;3.08;0.60;;;24.00;63.00;;;;;;6054721;23;20015;-90
2022/06/24 10:21:50;;;;;;;3.05;0.70;;;24.00;63.00;;;;;;6061783;23;20078;-90
2022/06/24 10:24:17;;;;;;;1.80;0.50;;;24.00;62.90;;;;;;6052780;23;20065;-90
2022/06/24 10:26:48;;;;;;;0.73;0.60;;;24.10;62.90;;;;;;6080451;23;20014;-88
2022/06/24 10:29:23;;;;;;;1.05;0.60;;;24.10;62.70;;;;;;6056890;23;20019;-90
2022/06/24 10:34:30;;;;;;;1.38;0.77;;;24.20;62.80;;;;;;6078693;23;20018;-91
2022/06/24 10:37:05;;;;;;;1.63;0.70;;;24.20;63.40;;;;;;6057176;23;20305;-90
2022/06/24 10:39:49;;;;;;;;;;;24.20;64.20;;;;;;6080224;23;20090;-90
2022/06/24 10:42:25;;;;;;;0.77;0.52;;;24.20;64.30;;;;;;6036461;23;19949;-91
2022/06/24 10:45:03;;;;;;;1.25;0.77;;;24.20;64.60;;;;;;6032743;23;20018;-92
2022/06/24 10:47:40;;;;;;;1.13;0.65;;;24.20;65.20;;;;;;6056031;23;20185;-92
2022/06/24 10:50:13;;;;;;;1.05;0.60;;;24.20;65.40;;;;;;6031775;23;20067;-89
2022/06/24 11:00:13;;;;;;;1.85;0.70;;;24.20;66.70;;;;;;6058041;23;20022;-91
2022/06/24 11:02:39;;;;;;;0.80;0.60;;;24.20;66.70;;;;;;6054576;23;20011;-91
2022/06/24 11:05:14;;;;;;;1.33;0.77;;;24.20;66.80;;;;;;6055996;23;20560;-89
2022/06/24 11:07:49;;;;;;;3.40;0.75;;;24.20;67.00;;;;;;6057787;23;20027;-91
2022/06/24 11:10:24;;;;;;;2.85;0.60;;;24.20;67.20;;;;;;6031511;23;20070;-90
2022/06/24 11:13:00;;;;;;;2.35;0.60;;;24.20;67.10;;;;;;6032596;23;20011;-91
2022/06/24 11:15:51;;;;;;;1.15;0.60;;;24.20;66.90;;;;;;6032509;23;20101;-91
2022/06/24 11:18:23;;;;;;;1.00;0.85;;;24.20;66.60;;;;;;6080098;23;20011;-91
2022/06/24 11:20:54;;;;;;;1.65;0.85;;;24.20;66.50;;;;;;6079430;23;20366;-91
2022/06/24 11:23:24;;;;;;;0.68;0.52;;;24.20;66.30;;;;;;6056187;23;20026;-91
2022/06/24 11:26:17;;;;;;;3.60;0.63;;;24.20;66.20;;;;;;6032176;23;20398;-92
2022/06/24 11:28:52;;;;;;;0.70;0.60;;;24.30;66.20;;;;;;6055112;23;20022;-91
2022/06/24 11:31:27;;;;;;;3.92;0.68;;;24.30;65.80;;;;;;6030217;23;20019;-91
2022/06/24 11:34:05;;;;;;;;;;;24.30;65.40;;;;;;6055573;23;20026;-91
2022/06/24 11:36:35;;;;;;;2.05;0.75;;;24.40;65.40;;;;;;6078149;23;19973;-91
2022/06/24 11:39:07;;;;;;;0.60;0.43;;;24.50;65.30;;;;;;6056338;23;20011;-91
2022/06/24 11:41:36;;;;;;;0.85;0.55;;;24.50;65.00;;;;;;6033076;23;20090;-91
2022/06/24 11:44:02;;;;;;;2.00;0.80;;;24.60;64.60;;;;;;6028800;23;20453;-91
2022/06/24 11:46:28;;;;;;;1.02;0.57;;;24.60;63.90;;;;;;6055668;23;20062;-92
2022/06/24 11:49:13;;;;;;;1.90;0.80;;;24.70;62.90;;;;;;6056293;23;20399;-91
2022/06/24 11:51:41;;;;;;;1.20;0.68;;;24.70;61.50;;;;;;6007734;23;20011;-90
2022/06/24 11:54:08;;;;;;;1.35;0.60;;;24.70;60.80;;;;;;6032283;23;20366;-89
2022/06/24 11:56:38;;;;;;;3.03;0.68;;;24.80;60.20;;;;;;6057320;23;20501;-92
2022/06/24 11:59:05;;;;;;;1.65;0.90;;;24.80;59.80;;;;;;6055846;23;20597;-92
2022/06/24 12:01:33;;;;;;;1.83;1.10;;;24.80;59.70;;;;;;6078718;23;20010;-92
2022/06/24 12:04:01;;;;;;;0.75;0.55;;;24.90;59.60;;;;;;6053966;23;20011;-90
2022/06/24 12:06:28;;;;;;;2.25;0.98;;;24.80;59.30;;;;;;6031059;23;20095;-91
2022/06/24 12:08:55;;;;;;;3.33;1.17;;;24.80;59.90;;;;;;6031276;23;20017;-92
2022/06/24 12:11:23;;;;;;;3.72;1.27;;;24.80;60.90;;;;;;6031701;23;20033;-92
2022/06/24 12:14:03;;;;;;;2.35;1.25;;;24.70;62.30;;;;;;6063072;23;20014;-92
2022/06/24 12:17:00;;;;;;;4.68;1.15;;;24.50;62.40;;;;;;6031949;23;20038;-92
2022/06/24 12:19:32;;;;;;;4.63;1.20;;;24.40;63.10;;;;;;6051494;23;20086;-92
2022/06/24 12:22:11;;;;;;;2.75;1.13;;;24.30;63.40;;;;;;6077789;23;20262;-93
2022/06/24 12:24:38;;;;;;;3.03;1.02;;;24.20;63.90;;;;;;6077155;23;20043;-92
2022/06/24 12:27:06;;;;;;;2.97;1.13;;;24.10;64.30;;;;;;6053513;23;20035;-92
2022/06/24 12:29:41;;;;;;;3.05;1.10;;;24.00;64.60;;;;;;6052251;23;20011;-91
2022/06/24 12:32:09;;;;;;;2.70;1.20;;;24.00;65.20;;;;;;6028681;23;20003;-91
2022/06/24 12:34:37;;;;;;;2.53;1.20;;;23.90;66.10;;;;;;6052128;23;20056;-91
2022/06/24 12:37:08;;;;;;;2.05;1.05;;;23.90;66.00;;;;;;6030558;23;20025;-91
2022/06/24 12:39:38;;;;;;;2.72;1.20;;;23.90;66.50;;;;;;6055220;23;20015;-91
2022/06/24 12:42:05;;;;;;;1.92;1.10;;;23.80;67.00;;;;;;6075843;23;20018;-90
2022/06/24 12:44:48;;;;;;;3.35;1.25;;;23.80;67.40;;;;;;6026392;23;20416;-88
2022/06/24 12:53:03;;;;;;;3.35;1.00;;;23.80;68.60;;;;;;6052330;23;20022;-89
2022/06/24 12:55:31;;;;;;;3.95;1.70;;;23.80;68.80;;;;;;6027989;23;20030;-89
2022/06/24 12:57:57;;;;;;;7.35;1.73;;;23.80;69.60;;;;;;6026695;23;20011;-90
2022/06/24 13:00:23;;;;;;;3.92;1.13;;;23.80;70.40;;;;;;6050616;23;20094;-90
2022/06/24 13:02:54;;;;;;;2.85;1.20;;;23.90;70.90;;;;;;6051549;23;20243;-88
2022/06/24 13:05:23;;;;;;;3.15;1.10;;;23.90;71.40;;;;;;6049234;23;20022;-91
2022/06/24 13:07:49;;;;;;;1.63;0.82;;;24.00;71.70;;;;;;6029601;23;20442;-91
2022/06/24 13:10:16;;;;;;;2.53;1.10;;;24.00;71.60;;;;;;6050087;23;20367;-89
2022/06/24 13:12:42;;;;;;;2.40;1.20;;;24.10;71.60;;;;;;6054533;23;20011;-88
2022/06/24 13:15:10;;;;;;;4.10;1.30;;;24.10;71.30;;;;;;6052397;23;20359;-91
2022/06/24 13:17:37;;;;;;;2.42;1.30;;;24.20;71.40;;;;;;6030319;23;20237;-91
2022/06/24 13:20:06;;;;;;;2.40;1.10;;;24.20;71.60;;;;;;6029267;23;20066;-91
2022/06/24 13:22:32;;;;;;;1.80;1.08;;;24.30;71.40;;;;;;6024590;23;20141;-92
2022/06/24 13:24:58;;;;;;;2.33;1.25;;;24.30;70.90;;;;;;6048916;23;20043;-91
2022/06/24 13:27:24;;;;;;;1.80;1.00;;;24.40;70.30;;;;;;6048270;23;20481;-91
2022/06/24 13:29:49;;;;;;;1.98;1.25;;;24.40;70.00;;;;;;6049385;23;20581;-90
2022/06/24 13:32:15;;;;;;;3.63;1.40;;;24.50;69.40;;;;;;6051535;23;20003;-89
2022/06/24 13:34:41;;;;;;;5.22;1.42;;;24.50;68.90;;;;;;6078367;23;20085;-90
2022/06/24 13:37:07;;;;;;;3.17;1.40;;;24.50;68.40;;;;;;6053145;23;20343;-91
2022/06/24 13:39:32;;;;;;;2.15;1.27;;;24.60;67.90;;;;;;6056790;23;20011;-91
2022/06/24 13:41:58;;;;;;;2.30;1.10;;;24.60;67.40;;;;;;6055852;23;20021;-90
2022/06/24 13:44:24;;;;;;;3.10;1.35;;;24.60;67.00;;;;;;6053418;23;20493;-91
2022/06/24 13:50:31;;;;;;;2.75;1.10;;;24.60;65.80;;;;;;6055108;23;20078;-91
2022/06/24 13:52:57;;;;;;;1.90;1.00;;;24.60;65.40;;;;;;6074745;23;20007;-91
2022/06/24 13:55:22;;;;;;;1.65;0.95;;;24.70;65.10;;;;;;6050953;23;20259;-91
2022/06/24 13:57:48;;;;;;;2.05;1.10;;;24.70;64.60;;;;;;6051772;23;20484;-92
2022/06/24 14:00:14;;;;;;;1.58;1.08;;;24.70;64.20;;;;;;6051834;23;20386;-90
2022/06/24 14:02:40;;;;;;;1.85;1.10;;;24.70;63.90;;;;;;6077051;23;20429;-91
2022/06/24 14:05:06;;;;;;;3.65;0.98;;;24.70;63.30;;;;;;6047096;23;20027;-91
2022/06/24 14:07:32;;;;;;;2.88;1.13;;;24.70;62.70;;;;;;6050381;23;20366;-91
2022/06/24 14:09:58;;;;;;;3.88;1.02;;;24.70;61.70;;;;;;6051330;23;20017;-91
2022/06/24 14:12:23;;;;;;;2.17;0.77;;;24.70;60.40;;;;;;6051607;23;20343;-92
2022/06/24 14:14:49;;;;;;;1.60;0.82;;;24.70;60.00;;;;;;6049934;23;20070;-91
2022/06/24 14:17:40;;;;;;;4.80;1.02;;;24.70;60.10;;;;;;6055377;23;20308;-92
2022/06/24 14:20:06;;;;;;;2.38;1.15;;;24.60;59.90;;;;;;6051092;23;20015;-91
2022/06/24 14:22:32;;;;;;;1.80;1.00;;;24.50;60.10;;;;;;6057006;23;20014;-92
2022/06/24 14:24:58;;;;;;;3.65;1.05;;;24.50;60.00;;;;;;6052809;23;20461;-93
2022/06/24 14:27:24;;;;;;;1.73;1.17;;;24.50;59.90;;;;;;6052967;23;20010;-90
2022/06/24 14:29:49;;;;;;;3.45;1.00;;;24.40;59.80;;;;;;6053011;23;20021;-93
2022/06/24 14:32:15;;;;;;;2.10;0.90;;;24.40;60.40;;;;;;6054051;23;20031;-92
2022/06/24 14:34:41;;;;;;;2.58;1.25;;;24.40;59.60;;;;;;6076715;23;20014;-92
2022/06/24 14:42:35;;;;;;;3.20;1.10;;;24.40;59.70;;;;;;6036427;23;20014;-92
2022/06/24 14:45:01;;;;;;;2.95;0.88;;;24.40;59.80;;;;;;6056551;23;20010;-92
2022/06/24 14:47:27;;;;;;;2.63;1.10;;;24.40;59.80;;;;;;6054552;23;20011;-92
2022/06/24 14:49:52;;;;;;;2.15;1.08;;;24.30;59.80;;;;;;6055159;23;20011;-93
2022/06/24 14:52:18;;;;;;;3.00;1.27;;;24.40;60.00;;;;;;6055495;23;20014;-91
2022/06/24 14:54:44;;;;;;;2.63;1.08;;;24.40;59.90;;;;;;6053011;23;20006;-92
2022/06/24 14:57:09;;;;;;;1.65;0.70;;;24.40;59.80;;;;;;6050699;23;20019;-91
2022/06/24 14:59:35;;;;;;;2.33;1.10;;;24.40;59.50;;;;;;6051836;23;20003;-92
2022/06/24 15:02:01;;;;;;;5.03;1.10;;;24.40;59.80;;;;;;6047714;23;20730;-91
2022/06/24 15:04:27;;;;;;;2.45;1.08;;;24.40;59.00;;;;;;6052019;23;20015;-92
2022/06/24 15:06:52;;;;;;;3.10;1.27;;;24.40;58.80;;;;;;6054182;23;20033;-90
2022/06/24 15:09:18;;;;;;;1.83;1.10;;;24.40;58.80;;;;;;6078014;23;20006;-91
2022/06/24 15:11:44;;;;;;;3.08;1.40;;;24.40;58.90;;;;;;6056401;23;20010;-89
2022/06/24 15:14:09;;;;;;;1.73;1.10;;;24.50;58.90;;;;;;6056380;23;20423;-89
2022/06/24 15:16:35;;;;;;;2.45;1.00;;;24.50;58.40;;;;;;6058121;23;20011;-92
2022/06/24 15:19:01;;;;;;;3.00;1.00;;;24.50;57.80;;;;;;6056459;23;20010;-92
2022/06/24 15:21:27;;;;;;;2.65;1.52;;;24.50;57.40;;;;;;6054631;23;20414;-92
2022/06/24 15:23:54;;;;;;;3.75;1.55;;;24.60;57.40;;;;;;6077486;23;20007;-91
2022/06/24 15:26:19;;;;;;;3.95;1.00;;;24.50;56.90;;;;;;6052185;23;20085;-92
2022/06/24 15:28:45;;;;;;;1.23;0.82;;;24.50;56.80;;;;;;6053702;23;20006;-91
2022/06/24 15:31:12;;;;;;;2.63;1.10;;;24.60;56.70;;;;;;6003687;23;20094;-91
2022/06/24 15:33:38;;;;;;;1.33;0.82;;;24.60;56.30;;;;;;6056093;23;20041;-89
2022/06/24 15:36:04;;;;;;;1.48;0.95;;;24.60;56.30;;;;;;6058116;23;20014;-92
2022/06/24 15:38:30;;;;;;;7.50;1.20;;;24.60;56.40;;;;;;6055155;23;20066;-92
2022/06/24 15:40:56;;;;;;;2.30;1.10;;;24.60;56.40;;;;;;6049111;23;20049;-90
2022/06/24 15:43:22;;;;;;;2.85;1.35;;;24.70;56.50;;;;;;6073011;23;20006;-92
2022/06/24 15:45:50;;;;;;;2.22;1.00;;;24.70;56.10;;;;;;6049017;23;20007;-92
2022/06/24 15:48:16;;;;;;;2.70;1.23;;;24.70;56.20;;;;;;6052126;23;20018;-91
2022/06/24 15:50:42;;;;;;;2.47;1.10;;;24.70;56.20;;;;;;6048390;23;20284;-92
2022/06/24 15:53:08;;;;;;;9.00;1.90;;;24.70;56.30;;;;;;6049393;23;20014;-89
2022/06/24 15:55:34;;;;;;;5.80;1.55;;;24.60;56.30;;;;;;6052499;23;20015;-92
2022/06/24 15:58:00;;;;;;;2.53;0.95;;;24.80;56.30;;;;;;6049853;23;20011;-92
2022/06/24 16:00:25;;;;;;;5.18;1.13;;;24.80;56.30;;;;;;6049995;23;20030;-92
2022/06/24 16:02:51;;;;;;;3.15;1.25;;;24.80;56.50;;;;;;6057496;23;20031;-91
2022/06/24 16:05:17;;;;;;;2.50;0.90;;;24.70;56.30;;;;;;6052493;23;20058;-90
2022/06/24 16:07:43;;;;;;;1.35;0.82;;;24.70;56.20;;;;;;6055830;23;20094;-92
2022/06/24 16:10:09;;;;;;;1.65;0.82;;;24.70;55.90;;;;;;6052596;23;20074;-91
2022/06/24 16:12:34;;;;;;;2.13;1.00;;;24.80;55.40;;;;;;6053870;23;20014;-92
2022/06/24 16:15:04;;;;;;;3.03;1.15;;;24.90;55.20;;;;;;6052741;23;20094;-91
2022/06/24 16:17:30;;;;;;;4.43;1.05;;;24.80;54.70;;;;;;6030114;23;20015;-92
2022/06/24 16:19:56;;;;;;;2.17;1.00;;;24.80;54.40;;;;;;6056608;23;20017;-92
2022/06/24 16:22:23;;;;;;;2.13;0.90;;;24.80;54.40;;;;;;6032621;23;20087;-92
2022/06/24 16:30:18;;;;;;;6.60;1.30;;;24.70;54.70;;;;;;6056405;23;20280;-94
2022/06/24 16:32:45;;;;;;;4.45;1.20;;;24.70;54.70;;;;;;6030615;23;20236;-94
2022/06/24 16:35:11;;;;;;;2.83;1.08;;;24.70;54.80;;;;;;6053804;23;20011;-92
2022/06/24 16:37:37;;;;;;;4.07;1.13;;;24.70;54.90;;;;;;6055645;23;20011;-91
2022/06/24 16:40:04;;;;;;;1.85;1.05;;;24.60;55.00;;;;;;6053991;23;20046;-90
2022/06/24 16:42:30;;;;;;;2.92;1.10;;;24.70;55.10;;;;;;6029794;23;20034;-91
2022/06/24 16:44:58;;;;;;;1.88;1.00;;;24.70;55.10;;;;;;6054567;23;20478;-92
2022/06/24 16:47:25;;;;;;;3.22;1.33;;;24.70;55.10;;;;;;6078518;23;20074;-91
2022/06/24 16:49:51;;;;;;;1.70;0.90;;;24.70;55.20;;;;;;6052341;23;20018;-92
2022/06/24 16:52:17;;;;;;;3.35;1.88;;;24.70;55.30;;;;;;6054434;23;20022;-92
2022/06/24 16:54:43;;;;;;;3.17;1.25;;;24.70;55.20;;;;;;6038698;23;20007;-92
2022/06/24 16:57:09;;;;;;;4.63;1.27;;;24.70;55.20;;;;;;6056410;23;20066;-92
2022/06/24 16:59:34;;;;;;;3.90;1.15;;;24.70;55.20;;;;;;6055066;23;20347;-92
2022/06/24 17:02:00;;;;;;;2.63;1.25;;;24.70;55.00;;;;;;6057193;23;20019;-91
2022/06/24 17:04:26;;;;;;;2.05;1.30;;;24.70;55.10;;;;;;6054295;23;20066;-92
2022/06/24 17:06:52;;;;;;;3.22;1.30;;;24.70;55.00;;;;;;6054909;23;20019;-92
2022/06/24 17:09:19;;;;;;;1.90;0.98;;;24.60;54.80;;;;;;6033636;23;20022;-92
2022/06/24 17:11:45;;;;;;;2.00;1.08;;;24.60;54.60;;;;;;6057407;23;20072;-91
2022/06/24 17:14:11;;;;;;;2.33;1.00;;;24.60;55.10;;;;;;6033343;23;20011;-92
2022/06/24 17:16:37;;;;;;;1.75;0.77;;;24.60;54.30;;;;;;6055789;23;20021;-92
2022/06/24 17:19:03;;;;;;;2.95;0.80;;;24.60;54.20;;;;;;6057972;23;20726;-92
2022/06/24 17:21:29;;;;;;;2.95;1.05;;;24.50;53.80;;;;;;6057410;23;20030;-92
2022/06/24 17:23:56;;;;;;;2.15;1.00;;;24.50;54.50;;;;;;6059716;23;20006;-92
2022/06/24 17:26:22;;;;;;;3.35;1.08;;;24.50;53.90;;;;;;6056120;23;20015;-92
2022/06/24 17:28:49;;;;;;;3.53;1.17;;;24.50;54.00;;;;;;6057524;23;20009;-92
2022/06/24 17:31:16;;;;;;;3.40;0.80;;;24.40;54.10;;;;;;6057066;23;20015;-92
2022/06/24 17:33:46;;;;;;;4.63;1.15;;;24.40;54.10;;;;;;6034060;23;20013;-92
2022/06/24 17:36:14;;;;;;;3.30;1.10;;;24.40;54.20;;;;;;6057867;23;20019;-91
2022/06/24 17:38:41;;;;;;;3.75;0.77;;;24.40;54.20;;;;;;6034620;23;20003;-90
2022/06/24 17:41:06;;;;;;;3.20;1.50;;;24.40;54.20;;;;;;6060417;23;20458;-92
2022/06/24 17:43:32;;;;;;;3.40;1.20;;;24.40;54.70;;;;;;6055215;23;20010;-93
2022/06/24 17:45:58;;;;;;;4.15;0.90;;;24.40;54.30;;;;;;6056723;23;20066;-92
2022/06/24 17:48:24;;;;;;;3.03;0.82;;;24.40;54.30;;;;;;6057012;23;20006;-92
2022/06/24 17:50:49;;;;;;;2.72;0.90;;;24.40;54.20;;;;;;6056325;23;20421;-92
2022/06/24 17:53:15;;;;;;;3.42;1.13;;;24.40;54.20;;;;;;6059100;23;20438;-92
2022/06/24 17:55:41;;;;;;;4.00;1.00;;;24.40;54.20;;;;;;6056866;23;20007;-92
2022/06/24 17:58:07;;;;;;;2.95;1.05;;;24.40;54.20;;;;;;6083092;23;20338;-92
2022/06/24 18:00:32;;;;;;;1.92;0.90;;;24.40;54.20;;;;;;6057843;23;20003;-91
2022/06/24 18:02:58;;;;;;;1.75;0.77;;;24.40;54.20;;;;;;6058500;23;20223;-92
2022/06/24 18:05:24;;;;;;;2.10;1.00;;;24.40;54.30;;;;;;6057108;23;20458;-92
2022/06/24 18:07:51;;;;;;;5.85;1.00;;;24.40;54.30;;;;;;6056630;23;20011;-92
2022/06/24 18:10:17;;;;;;;1.42;0.80;;;24.40;54.40;;;;;;6058161;23;20094;-91
2022/06/24 18:12:42;;;;;;;5.30;1.00;;;24.40;54.60;;;;;;6057772;23;20030;-92
2022/06/24 18:15:09;;;;;;;3.00;0.80;;;24.30;54.60;;;;;;6058490;23;20458;-92
2022/06/24 18:17:35;;;;;;;2.53;0.88;;;24.30;54.80;;;;;;6032911;23;20035;-92
2022/06/24 18:20:01;;;;;;;1.88;0.85;;;24.30;54.90;;;;;;6057472;23;20054;-91
2022/06/24 18:22:27;;;;;;;1.98;0.90;;;24.30;54.90;;;;;;6033871;23;20007;-92
2022/06/24 18:24:52;;;;;;;2.10;0.80;;;24.30;55.00;;;;;;6057791;23;20208;-92
2022/06/24 18:27:18;;;;;;;1.92;0.90;;;24.30;54.90;;;;;;6057529;23;20015;-92
2022/06/24 18:29:44;;;;;;;2.20;0.90;;;24.20;54.80;;;;;;6057899;23;20070;-92
2022/06/24 18:32:10;;;;;;;1.20;0.68;;;24.20;54.80;;;;;;6057318;23;20014;-89
2022/06/24 18:34:35;;;;;;;2.95;0.98;;;24.20;54.80;;;;;;6082950;23;20042;-92
2022/06/24 18:37:01;;;;;;;1.52;0.77;;;24.20;54.80;;;;;;6056514;23;20398;-92
2022/06/24 18:39:27;;;;;;;2.58;1.00;;;24.20;54.80;;;;;;6057148;23;20011;-93
2022/06/24 18:41:53;;;;;;;6.38;1.10;;;24.20;54.90;;;;;;6057056;23;20090;-92
2022/06/24 18:44:19;;;;;;;3.67;1.00;;;24.20;54.90;;;;;;6081251;23;20018;-92
2022/06/24 18:46:44;;;;;;;2.90;0.88;;;24.20;54.90;;;;;;6058005;23;20015;-92
2022/06/24 18:49:10;;;;;;;1.10;0.60;;;24.10;55.00;;;;;;6052661;23;20018;-90
2022/06/24 18:51:36;;;;;;;1.85;0.90;;;24.10;55.60;;;;;;6056850;23;20489;-89
2022/06/24 18:54:02;;;;;;;1.98;0.80;;;24.10;55.10;;;;;;6059064;23;20070;-92
2022/06/24 18:56:28;;;;;;;2.25;0.90;;;24.10;55.20;;;;;;6032306;23;20014;-92
2022/06/24 18:58:53;;;;;;;1.27;0.75;;;24.00;55.20;;;;;;6057262;23;20259;-92
2022/06/24 19:01:19;;;;;;;1.40;0.63;;;24.00;55.20;;;;;;6033222;23;20014;-92
2022/06/24 19:03:45;;;;;;;1.33;0.90;;;24.00;55.20;;;;;;6056291;23;20073;-91
2022/06/24 19:06:11;;;;;;;3.05;0.98;;;24.00;55.20;;;;;;6053286;23;20057;-91
2022/06/24 19:08:36;;;;;;;3.22;0.93;;;24.00;55.80;;;;;;6055736;23;20472;-92
2022/06/24 19:11:02;;;;;;;1.77;0.82;;;24.00;55.30;;;;;;6051982;23;20015;-89
2022/06/24 19:13:28;;;;;;;2.97;0.98;;;24.00;55.30;;;;;;6056465;23;20097;-91
2022/06/24 19:15:54;;;;;;;1.33;0.73;;;24.00;55.40;;;;;;6053572;23;20007;-92
2022/06/24 19:19:04;;;;;;;2.05;0.80;;;24.00;55.30;;;;;;6080796;23;20006;-92
2022/06/24 19:21:06;;;;;;;3.20;0.80;;;24.00;55.40;;;;;;6055730;23;20058;-91
2022/06/24 19:23:32;;;;;;;3.13;0.77;;;24.00;55.50;;;;;;6057997;23;20034;-92
2022/06/24 19:25:57;;;;;;;0.98;0.80;;;24.00;55.50;;;;;;6057779;23;20018;-91
2022/06/24 19:28:23;;;;;;;3.05;0.93;;;24.00;55.60;;;;;;6057776;23;20007;-92
2022/06/24 19:30:49;;;;;;;2.60;0.85;;;24.00;55.60;;;;;;6055034;23;20383;-92
2022/06/24 19:33:14;;;;;;;4.13;1.08;;;23.90;55.60;;;;;;6056651;23;20034;-89
2022/06/24 19:35:41;;;;;;;1.52;0.60;;;23.90;55.60;;;;;;6056269;23;20015;-90
2022/06/24 19:38:07;;;;;;;4.75;1.33;;;23.90;55.60;;;;;;6033020;23;20022;-92
2022/06/24 19:40:33;;;;;;;2.75;1.00;;;23.80;55.60;;;;;;6056238;23;20082;-92
2022/06/24 19:42:59;;;;;;;1.08;0.63;;;23.80;55.70;;;;;;6032307;23;20011;-92
2022/06/24 19:45:25;;;;;;;3.63;0.73;;;23.80;55.80;;;;;;6058199;23;20294;-92
2022/06/24 19:47:52;;;;;;;3.17;0.70;;;23.80;55.80;;;;;;6056525;23;20026;-92
2022/06/24 19:50:18;;;;;;;1.55;0.70;;;23.80;56.40;;;;;;6055972;23;20094;-92
2022/06/24 19:52:45;;;;;;;2.05;0.45;;;23.70;55.70;;;;;;6056055;23;20038;-92
2022/06/24 19:55:11;;;;;;;1.95;0.65;;;23.70;55.80;;;;;;6055447;23;20011;-91
2022/06/24 19:57:37;;;;;;;1.83;0.40;;;23.70;55.70;;;;;;6054589;23;20011;-92
2022/06/24 20:00:04;;;;;;;1.88;0.47;;;23.70;55.80;;;;;;6057158;23;20430;-92
2022/06/24 20:07:58;;;;;;;0.83;0.40;;;23.60;55.90;;;;;;6055724;23;20143;-92
2022/06/24 20:10:23;;;;;;;1.05;0.30;;;23.60;55.90;;;;;;6056927;23;20284;-92
2022/06/24 20:12:49;;;;;;;2.08;0.40;;;23.60;56.00;;;;;;6054674;23;20059;-89
2022/06/24 20:15:15;;;;;;;1.48;0.45;;;23.60;56.10;;;;;;6034632;23;20007;-93
2022/06/24 20:17:41;;;;;;;1.48;0.50;;;23.50;56.20;;;;;;6079674;23;20015;-91
2022/06/24 20:20:07;;;;;;;2.75;0.63;;;23.50;56.20;;;;;;6055968;23;20234;-92
2022/06/24 20:22:33;;;;;;;1.42;0.55;;;23.40;56.20;;;;;;6031885;23;20474;-92
2022/06/24 20:25:00;;;;;;;2.00;0.40;;;23.40;56.90;;;;;;6056783;23;20006;-92
2022/06/24 20:27:26;;;;;;;1.60;0.60;;;23.40;56.40;;;;;;6079529;23;20045;-92
2022/06/24 20:29:52;;;;;;;0.75;0.40;;;23.30;56.40;;;;;;6057400;23;20007;-92
2022/06/24 20:32:18;;;;;;;1.27;0.60;;;23.30;56.50;;;;;;6055261;23;20026;-92
2022/06/24 20:34:45;;;;;;;0.93;0.50;;;23.30;56.50;;;;;;6054876;23;20010;-91
2022/06/24 20:37:11;;;;;;;0.63;0.38;;;23.30;56.60;;;;;;6057944;23;20045;-92
2022/06/24 20:39:37;;;;;;;0.88;0.45;;;23.20;56.60;;;;;;6057237;23;20017;-92
2022/06/24 20:42:04;;;;;;;2.75;0.68;;;23.20;56.60;;;;;;6055566;23;20039;-92
2022/06/24 20:44:30;;;;;;;4.18;0.73;;;23.20;57.20;;;;;;6034271;23;20406;-93
2022/06/24 20:46:56;;;;;;;3.60;0.40;;;23.20;56.70;;;;;;6057598;23;20015;-92
2022/06/24 20:49:22;;;;;;;2.08;0.60;;;23.20;56.80;;;;;;6058615;23;20011;-92
2022/06/24 20:51:48;;;;;;;0.70;0.35;;;23.20;56.80;;;;;;6057749;23;20019;-92
2022/06/24 20:54:14;;;;;;;2.83;0.65;;;23.20;56.90;;;;;;6056829;23;20459;-93
2022/06/24 20:56:39;;;;;;;2.45;0.50;;;23.20;56.90;;;;;;6034503;23;20391;-92
2022/06/24 20:59:06;;;;;;;2.63;0.80;;;23.30;57.10;;;;;;6059358;23;20455;-89
2022/06/24 21:01:32;;;;;;;1.27;0.55;;;23.10;57.10;;;;;;6058964;23;20015;-94
2022/06/24 21:03:57;;;;;;;3.60;0.70;;;23.10;57.10;;;;;;6056957;23;20014;-93
2022/06/24 21:06:23;;;;;;;1.10;0.40;;;23.00;57.20;;;;;;6079767;23;20026;-92
2022/06/24 21:08:49;;;;;;;1.85;0.50;;;23.00;57.30;;;;;;6058237;23;20007;-93
2022/06/24 21:11:16;;;;;;;1.95;0.60;;;23.00;57.50;;;;;;6058255;23;20002;-91
2022/06/24 21:13:42;;;;;;;1.05;0.50;;;22.90;57.50;;;;;;6058235;23;20342;-93
2022/06/24 21:16:08;;;;;;;1.45;0.55;;;22.90;57.50;;;;;;6057398;23;20462;-92
2022/06/24 21:18:34;;;;;;;1.77;0.47;;;22.90;57.70;;;;;;6057065;23;20013;-92
2022/06/24 21:21:00;;;;;;;1.38;0.60;;;22.80;57.70;;;;;;6058848;23;20018;-89
2022/06/24 21:23:27;;;;;;;2.90;0.57;;;22.80;57.80;;;;;;6058750;23;20034;-92
2022/06/24 21:25:53;;;;;;;4.00;0.80;;;22.80;57.90;;;;;;6057361;23;20007;-92
2022/06/24 21:28:19;;;;;;;2.90;0.55;;;22.80;58.00;;;;;;6057150;23;20021;-92
2022/06/24 21:30:45;;;;;;;2.55;0.70;;;22.80;58.00;;;;;;6058717;23;20015;-93
2022/06/24 21:33:11;;;;;;;0.52;0.43;;;22.70;58.00;;;;;;6056115;23;20066;-92